Time;durP1;ratioP1;P1;durP2;ratioP2;P2;SDS_P1;SDS_P2;PMS_P1;PMS_P2;Temp;Humidity;BMP_temperature;BMP_pressure;BME280_temperature;BME280_humidity;BME280_pressure;Samples;Min_cycle;Max_cycle;Signal;HPM_P1;HPM_P2
2022/05/03 00:00:34;;;;;;;14.00;6.70;;;13.40;90.30;;;;;;5113444;28;20036;-64
2022/05/03 00:03:17;;;;;;;16.30;6.18;;;13.40;90.80;;;;;;5113840;28;20129;-65
2022/05/03 00:06:04;;;;;;;11.38;6.40;;;;;;;;;;5113537;28;20130;-65
2022/05/03 00:08:43;;;;;;;11.60;6.13;;;13.30;90.20;;;;;;5113553;28;20028;-65
2022/05/03 00:11:31;;;;;;;15.65;6.72;;;13.30;91.50;;;;;;5113480;28;20495;-64
2022/05/03 00:14:09;;;;;;;11.43;5.88;;;13.20;91.10;;;;;;5113405;28;20023;-66
2022/05/03 00:16:37;;;;;;;12.60;5.47;;;13.20;91.00;;;;;;5095216;28;20034;-65
2022/05/03 00:19:09;;;;;;;9.35;5.63;;;13.30;92.40;;;;;;5113348;28;20020;-65
2022/05/03 00:21:35;;;;;;;;;;;13.20;92.10;;;;;;5113755;28;20038;-63
2022/05/03 00:24:02;;;;;;;11.10;5.03;;;13.10;90.90;;;;;;5113272;28;19908;-65
2022/05/03 00:26:28;;;;;;;14.23;5.53;;;13.10;91.30;;;;;;5112934;28;20062;-65
2022/05/03 00:28:56;;;;;;;12.80;5.63;;;13.20;97.20;;;;;;5112990;28;20020;-65
2022/05/03 00:31:23;;;;;;;12.95;5.25;;;;;;;;;;5112939;28;20410;-65
2022/05/03 00:33:49;;;;;;;12.18;6.07;;;13.10;90.80;;;;;;5094937;28;20083;-66
2022/05/03 00:36:15;;;;;;;12.15;7.03;;;13.20;91.00;;;;;;5113560;28;20138;-65
2022/05/03 00:38:41;;;;;;;11.60;5.20;;;13.20;91.10;;;;;;5094919;28;20142;-66
2022/05/03 00:41:10;;;;;;;10.70;6.07;;;13.20;91.20;;;;;;5113167;28;20522;-66
2022/05/03 00:44:02;;;;;;;13.82;6.60;;;13.10;93.00;;;;;;5094857;28;20034;-66
2022/05/03 00:46:35;;;;;;;17.42;7.05;;;13.10;92.90;;;;;;5113207;28;20027;-66
2022/05/03 00:49:04;;;;;;;23.80;8.93;;;;;;;;;;5113086;28;20049;-66
2022/05/03 00:51:52;;;;;;;22.55;9.30;;;13.10;92.90;;;;;;5113045;28;20036;-66
2022/05/03 00:54:58;;;;;;;14.27;7.13;;;13.10;92.70;;;;;;5113127;28;20032;-66
2022/05/03 00:57:56;;;;;;;14.18;6.78;;;13.10;92.50;;;;;;5113045;28;20480;-66
2022/05/03 01:00:25;;;;;;;17.77;7.07;;;13.10;93.10;;;;;;5099092;28;20052;-67
2022/05/03 01:03:15;;;;;;;18.95;7.88;;;13.10;92.50;;;;;;5115897;28;20036;-67
2022/05/03 01:06:20;;;;;;;17.67;8.52;;;13.10;92.60;;;;;;5116813;28;20015;-66
2022/05/03 01:09:05;;;;;;;12.10;6.40;;;13.00;92.40;;;;;;5116698;28;20030;-66
2022/05/03 01:11:37;;;;;;;11.95;5.53;;;13.00;92.20;;;;;;5116619;28;20027;-66
2022/05/03 01:14:06;;;;;;;15.05;5.90;;;13.00;92.20;;;;;;5116589;28;20102;-66
2022/05/03 01:16:55;;;;;;;13.18;6.15;;;13.00;92.20;;;;;;5098282;28;20034;-67
2022/05/03 01:19:48;;;;;;;9.75;5.82;;;13.00;92.40;;;;;;5116820;28;20030;-65
2022/05/03 01:22:22;;;;;;;16.92;6.47;;;12.90;92.60;;;;;;5098126;28;20483;-64
2022/05/03 01:25:00;;;;;;;13.35;7.57;;;12.90;93.00;;;;;;5116362;28;20051;-66
2022/05/03 01:27:50;;;;;;;12.77;6.35;;;12.90;92.80;;;;;;5116361;28;20039;-66
2022/05/03 01:30:16;;;;;;;18.20;6.88;;;12.90;93.10;;;;;;5116332;28;20038;-66
2022/05/03 01:32:44;;;;;;;16.10;6.70;;;12.90;93.20;;;;;;5116210;28;20138;-66
2022/05/03 01:35:16;;;;;;;15.98;6.32;;;12.90;93.50;;;;;;5116161;28;20020;-65
2022/05/03 01:37:55;;;;;;;;;;;12.90;93.70;;;;;;5116570;28;20031;-64
2022/05/03 01:40:41;;;;;;;15.18;6.72;;;12.80;94.60;;;;;;5097755;28;19915;-66
2022/05/03 01:43:51;;;;;;;15.50;6.70;;;12.70;94.60;;;;;;5098121;28;20046;-66
2022/05/03 01:46:23;;;;;;;13.10;6.43;;;12.70;94.50;;;;;;5115996;28;20055;-66
2022/05/03 01:52:15;;;;;;;9.73;5.72;;;12.60;95.30;;;;;;5115860;28;20042;-65
2022/05/03 01:54:40;;;;;;;18.23;9.10;;;12.50;94.90;;;;;;5115789;28;20031;-66
2022/05/03 01:57:15;;;;;;;23.10;11.32;;;12.40;95.30;;;;;;5097423;28;20020;-66
2022/05/03 01:59:44;;;;;;;15.73;10.73;;;;;;;;;;5115659;28;20028;-64
2022/05/03 02:02:18;;;;;;;19.25;10.63;;;;;;;;;;5096972;28;20020;-64
2022/05/03 02:05:00;;;;;;;20.67;11.65;;;;;;;;;;5097310;28;20103;-64
2022/05/03 02:07:43;;;;;;;17.02;11.82;;;12.40;96.10;;;;;;5115421;28;20024;-64
2022/05/03 02:10:31;;;;;;;23.98;12.73;;;12.30;97.80;;;;;;5115498;28;20107;-66
2022/05/03 02:13:11;;;;;;;25.02;14.45;;;12.20;99.10;;;;;;5114458;28;20048;-66
2022/05/03 02:15:44;;;;;;;28.83;14.98;;;12.30;99.90;;;;;;5115383;28;20081;-66
2022/05/03 02:18:36;;;;;;;22.23;13.40;;;12.20;99.90;;;;;;5115431;28;20035;-65
2022/05/03 02:21:21;;;;;;;24.80;13.57;;;12.20;99.90;;;;;;5115302;28;20031;-65
2022/05/03 02:24:05;;;;;;;28.75;14.80;;;12.20;99.90;;;;;;5114966;28;20499;-65
2022/05/03 02:26:46;;;;;;;26.17;14.68;;;12.20;99.90;;;;;;5114791;28;20511;-65
2022/05/03 02:29:22;;;;;;;26.05;15.15;;;12.20;99.90;;;;;;5114904;28;20127;-65
2022/05/03 02:32:04;;;;;;;28.20;15.48;;;12.10;99.90;;;;;;5115118;28;20085;-64
2022/05/03 02:34:45;;;;;;;30.90;16.52;;;12.10;99.90;;;;;;5115013;28;20049;-65
2022/05/03 02:37:18;;;;;;;26.17;14.95;;;12.10;99.90;;;;;;5115021;28;20476;-65
2022/05/03 02:40:11;;;;;;;25.83;14.85;;;12.10;99.90;;;;;;5114821;28;20039;-65
2022/05/03 02:42:38;;;;;;;23.38;13.55;;;12.10;99.90;;;;;;5114893;28;20098;-65
2022/05/03 02:45:05;;;;;;;25.85;13.65;;;12.10;99.90;;;;;;5114786;28;20047;-65
2022/05/03 02:47:43;;;;;;;24.23;14.60;;;12.10;99.90;;;;;;5114784;28;20084;-66
2022/05/03 02:50:18;;;;;;;26.25;13.85;;;12.10;99.90;;;;;;5114671;28;20034;-65
2022/05/03 02:53:09;;;;;;;25.33;12.82;;;12.10;99.90;;;;;;5096342;28;20024;-64
2022/05/03 02:55:48;;;;;;;26.83;12.00;;;12.20;99.90;;;;;;5114660;28;20067;-65
2022/05/03 02:58:41;;;;;;;13.88;10.05;;;12.20;99.90;;;;;;5114549;28;20028;-65
2022/05/03 03:01:48;;;;;;;14.77;9.07;;;12.30;99.90;;;;;;5114443;28;20035;-64
2022/05/03 03:04:45;;;;;;;15.07;9.90;;;12.30;99.90;;;;;;5114092;28;20496;-65
2022/05/03 03:07:17;;;;;;;19.20;10.55;;;12.30;99.90;;;;;;5114659;28;20027;-64
2022/05/03 03:10:05;;;;;;;20.63;10.30;;;12.40;99.90;;;;;;5114350;28;20031;-63
2022/05/03 03:12:53;;;;;;;22.80;10.60;;;12.40;99.90;;;;;;5095949;28;20369;-65
2022/05/03 03:15:25;;;;;;;17.23;10.40;;;12.40;99.90;;;;;;5114205;28;20093;-63
2022/05/03 03:17:51;;;;;;;17.55;9.18;;;12.40;99.90;;;;;;5095956;28;20084;-63
2022/05/03 03:20:27;;;;;;;15.77;9.82;;;12.40;99.90;;;;;;5114034;28;20035;-65
2022/05/03 03:22:54;;;;;;;20.35;10.35;;;12.40;99.90;;;;;;5114113;28;20031;-63
2022/05/03 03:25:22;;;;;;;19.42;9.77;;;12.40;99.90;;;;;;5113514;28;20047;-63
2022/05/03 03:27:52;;;;;;;19.88;10.55;;;12.40;99.90;;;;;;5114015;28;20015;-63
2022/05/03 03:30:18;;;;;;;20.80;10.55;;;12.40;99.90;;;;;;5113934;28;20407;-65
2022/05/03 03:32:52;;;;;;;20.42;10.02;;;12.40;99.90;;;;;;5113920;28;20024;-64
2022/05/03 03:35:19;;;;;;;18.05;9.70;;;12.40;99.90;;;;;;5113673;28;20480;-65
2022/05/03 03:37:47;;;;;;;19.25;10.77;;;12.40;99.90;;;;;;5113890;28;20023;-65
2022/05/03 03:40:15;;;;;;;22.58;10.75;;;12.40;99.90;;;;;;5113703;28;20059;-65
2022/05/03 03:42:45;;;;;;;24.23;10.35;;;12.40;99.90;;;;;;5114081;28;20027;-64
2022/05/03 03:45:13;;;;;;;15.80;8.63;;;12.30;99.90;;;;;;5113977;28;20032;-64
2022/05/03 03:47:40;;;;;;;22.67;7.80;;;12.30;99.90;;;;;;5095473;28;20028;-65
2022/05/03 03:50:07;;;;;;;12.35;7.05;;;12.40;99.90;;;;;;5113670;28;20076;-64
2022/05/03 03:52:34;;;;;;;16.42;7.65;;;12.40;99.90;;;;;;5113616;28;20030;-64
2022/05/03 03:55:04;;;;;;;11.45;6.30;;;12.40;99.90;;;;;;5113598;28;20023;-64
2022/05/03 03:57:30;;;;;;;13.52;6.10;;;12.40;99.90;;;;;;5113330;28;20372;-64
2022/05/03 03:59:58;;;;;;;12.63;6.45;;;12.40;99.90;;;;;;5113481;28;20030;-64
2022/05/03 04:02:26;;;;;;;17.48;8.35;;;12.40;99.90;;;;;;5113809;28;20034;-64
2022/05/03 04:04:54;;;;;;;10.68;6.85;;;12.50;99.90;;;;;;5113490;28;20495;-64
2022/05/03 04:07:20;;;;;;;7.93;5.70;;;12.50;99.90;;;;;;5113490;28;20027;-64
2022/05/03 04:09:46;;;;;;;8.27;5.68;;;12.50;99.90;;;;;;5095251;28;20051;-64
2022/05/03 04:12:12;;;;;;;9.77;5.45;;;12.60;99.90;;;;;;5113183;28;20059;-64
2022/05/03 04:14:38;;;;;;;10.35;5.07;;;12.60;99.90;;;;;;5113433;28;20034;-64
2022/05/03 04:17:04;;;;;;;21.05;7.15;;;12.60;99.90;;;;;;5113156;28;20024;-64
2022/05/03 04:19:30;;;;;;;29.67;9.85;;;12.60;99.90;;;;;;5113423;28;20027;-64
2022/05/03 04:21:55;;;;;;;21.50;9.50;;;12.60;99.90;;;;;;5113322;28;20027;-64
2022/05/03 04:24:21;;;;;;;17.58;8.55;;;12.60;99.90;;;;;;5113328;28;20031;-64
2022/05/03 04:26:47;;;;;;;25.33;10.02;;;12.60;99.90;;;;;;5112904;28;20492;-64
2022/05/03 04:29:14;;;;;;;22.50;11.15;;;12.60;99.90;;;;;;5113343;28;20076;-64
2022/05/03 04:31:41;;;;;;;20.08;10.07;;;12.50;99.90;;;;;;5113266;28;20042;-64
2022/05/03 04:34:06;;;;;;;22.60;10.70;;;12.50;99.90;;;;;;5113276;28;20464;-64
2022/05/03 04:36:35;;;;;;;20.58;10.48;;;12.60;99.90;;;;;;5114202;28;20035;-64
2022/05/03 04:39:02;;;;;;;17.10;9.75;;;12.60;99.90;;;;;;5117311;28;20487;-64
2022/05/03 04:41:28;;;;;;;25.33;11.27;;;12.70;99.90;;;;;;5098743;28;20032;-64
2022/05/03 04:43:53;;;;;;;33.95;13.25;;;12.70;99.90;;;;;;5117163;28;20024;-65
2022/05/03 04:46:20;;;;;;;34.10;11.68;;;12.70;99.90;;;;;;5117098;28;20031;-66
2022/05/03 04:48:47;;;;;;;26.95;13.80;;;12.70;99.90;;;;;;5117132;28;20049;-66
2022/05/03 04:51:23;;;;;;;39.42;15.45;;;12.70;99.90;;;;;;5098346;28;20032;-67
2022/05/03 04:53:49;;;;;;;34.08;16.77;;;12.60;99.90;;;;;;5098658;28;20038;-66
2022/05/03 04:56:17;;;;;;;32.47;16.45;;;12.60;99.90;;;;;;5116899;28;20034;-67
2022/05/03 04:58:43;;;;;;;40.40;15.85;;;12.60;99.90;;;;;;5098664;28;20055;-66
2022/05/03 05:01:08;;;;;;;39.80;17.73;;;12.60;99.90;;;;;;5116756;28;20501;-67
2022/05/03 05:03:34;;;;;;;37.80;17.48;;;12.70;99.90;;;;;;5116774;28;20039;-67
2022/05/03 05:06:00;;;;;;;38.10;19.00;;;12.80;99.90;;;;;;5098411;28;20051;-67
2022/05/03 05:08:26;;;;;;;40.42;17.67;;;12.90;99.90;;;;;;5116730;28;20019;-67
2022/05/03 05:10:51;;;;;;;31.85;14.80;;;13.00;99.90;;;;;;5116727;28;20039;-67
2022/05/03 05:13:17;;;;;;;32.10;15.82;;;13.00;99.90;;;;;;5116634;28;20448;-68
2022/05/03 05:15:43;;;;;;;41.17;17.15;;;12.90;99.90;;;;;;5116566;28;20024;-67
2022/05/03 05:18:09;;;;;;;31.80;16.50;;;13.10;99.90;;;;;;5116243;28;20027;-67
2022/05/03 05:20:34;;;;;;;37.58;16.33;;;13.20;99.90;;;;;;5097979;28;20035;-67
2022/05/03 05:23:00;;;;;;;35.42;15.93;;;13.20;99.90;;;;;;5116370;28;20027;-66
2022/05/03 05:25:26;;;;;;;29.92;16.10;;;13.20;99.90;;;;;;5116115;28;20093;-67
2022/05/03 05:27:52;;;;;;;27.70;14.93;;;13.30;99.90;;;;;;5098021;28;20133;-67
2022/05/03 05:30:17;;;;;;;28.45;14.30;;;13.30;99.90;;;;;;5116312;28;20039;-67
2022/05/03 05:32:43;;;;;;;31.33;14.48;;;13.40;99.90;;;;;;5115894;28;20031;-67
2022/05/03 05:35:10;;;;;;;30.17;14.30;;;13.30;99.90;;;;;;5116161;28;20028;-67
2022/05/03 05:37:36;;;;;;;26.70;13.02;;;13.40;99.90;;;;;;5116018;28;20076;-67
2022/05/03 05:40:02;;;;;;;27.48;12.30;;;13.60;99.90;;;;;;5115861;28;20027;-66
2022/05/03 05:42:28;;;;;;;23.10;11.60;;;13.80;99.90;;;;;;5115676;28;20028;-67
2022/05/03 05:44:53;;;;;;;17.17;7.65;;;13.90;99.90;;;;;;5116137;28;20054;-67
2022/05/03 05:47:20;;;;;;;8.55;4.93;;;14.10;99.90;;;;;;5097501;28;20038;-67
2022/05/03 05:49:45;;;;;;;10.35;5.50;;;14.10;99.90;;;;;;5115627;28;20492;-66
2022/05/03 05:54:56;;;;;;;9.38;5.25;;;14.10;99.90;;;;;;5115551;28;20146;-66
2022/05/03 05:57:21;;;;;;;10.70;6.38;;;14.20;99.90;;;;;;5115973;28;20063;-67
2022/05/03 05:59:47;;;;;;;14.05;5.80;;;14.30;99.90;;;;;;5097326;28;20024;-67
2022/05/03 06:02:16;;;;;;;7.78;5.00;;;14.40;99.90;;;;;;5115326;28;20028;-67
2022/05/03 06:04:42;;;;;;;5.70;4.90;;;14.60;99.90;;;;;;5115577;28;20080;-66
2022/05/03 06:07:08;;;;;;;11.90;5.22;;;14.70;99.90;;;;;;5115543;28;20024;-64
2022/05/03 06:09:35;;;;;;;13.70;5.35;;;14.70;99.90;;;;;;5097204;28;20026;-66
2022/05/03 06:12:01;;;;;;;12.07;5.68;;;14.70;99.90;;;;;;5115500;28;20078;-66
2022/05/03 06:14:27;;;;;;;9.35;5.50;;;14.80;99.90;;;;;;5115377;28;20027;-67
2022/05/03 06:16:55;;;;;;;9.35;6.00;;;14.90;99.90;;;;;;5115341;28;20099;-65
2022/05/03 06:19:21;;;;;;;8.52;4.72;;;15.00;99.90;;;;;;5115052;28;20554;-65
2022/05/03 06:21:48;;;;;;;7.95;5.95;;;15.10;99.90;;;;;;5114984;28;20407;-65
2022/05/03 06:24:14;;;;;;;10.75;4.97;;;15.30;99.90;;;;;;5115168;28;20024;-66
2022/05/03 06:26:40;;;;;;;10.27;4.60;;;15.50;99.90;;;;;;5096570;28;20145;-66
2022/05/03 06:29:08;;;;;;;11.43;4.78;;;15.60;99.90;;;;;;5115145;28;20031;-66
2022/05/03 06:31:38;;;;;;;13.77;4.65;;;15.80;99.90;;;;;;5115083;28;20372;-66
2022/05/03 06:34:08;;;;;;;10.35;4.88;;;15.80;99.90;;;;;;5111969;28;20027;-66
2022/05/03 06:36:37;;;;;;;8.32;4.65;;;16.00;99.90;;;;;;5107825;28;20066;-66
2022/05/03 06:39:06;;;;;;;12.60;5.25;;;16.30;99.90;;;;;;5096509;28;20027;-67
2022/05/03 06:41:32;;;;;;;7.53;3.97;;;16.30;99.90;;;;;;5110671;28;20039;-66
2022/05/03 06:43:58;;;;;;;3.53;3.20;;;16.20;99.90;;;;;;5081026;28;20020;-66
2022/05/03 06:46:25;;;;;;;6.00;3.45;;;16.10;99.00;;;;;;5096342;28;20023;-67
2022/05/03 06:48:51;;;;;;;6.38;3.17;;;16.10;98.20;;;;;;5114780;28;20031;-67
2022/05/03 06:51:17;;;;;;;8.75;3.42;;;16.10;98.50;;;;;;5114693;28;20035;-68
2022/05/03 06:53:43;;;;;;;5.90;3.53;;;16.10;99.90;;;;;;5096267;28;20034;-66
2022/05/03 06:56:09;;;;;;;7.10;3.25;;;16.10;99.60;;;;;;5114529;28;20024;-66
2022/05/03 06:58:35;;;;;;;5.85;3.45;;;16.20;99.00;;;;;;5114316;28;20019;-66
2022/05/03 07:01:09;;;;;;;8.23;3.00;;;16.50;97.40;;;;;;5095745;28;20464;-66
2022/05/03 07:03:35;;;;;;;5.55;3.00;;;16.80;96.40;;;;;;5114436;28;20081;-66
2022/05/03 07:06:02;;;;;;;8.40;3.55;;;16.80;96.70;;;;;;5114333;28;20032;-65
2022/05/03 07:08:27;;;;;;;4.60;2.78;;;16.80;96.20;;;;;;5114344;28;20488;-67
2022/05/03 07:10:53;;;;;;;6.68;3.38;;;16.80;96.10;;;;;;5114112;28;20026;-68
2022/05/03 07:13:23;;;;;;;8.57;3.28;;;17.10;96.60;;;;;;5114556;28;20059;-69
2022/05/03 07:15:57;;;;;;;5.90;3.08;;;17.10;96.20;;;;;;5114274;28;20058;-68
2022/05/03 07:23:54;;;;;;;5.50;3.38;;;17.60;95.00;;;;;;5113946;28;20088;-71
2022/05/03 07:26:21;;;;;;;4.70;3.35;;;17.60;95.00;;;;;;5113933;28;20044;-71
2022/05/03 07:28:48;;;;;;;9.35;3.45;;;17.70;94.40;;;;;;5112701;28;20047;-71
2022/05/03 07:31:20;;;;;;;4.82;3.28;;;17.70;92.70;;;;;;5113960;28;20020;-70
2022/05/03 07:33:48;;;;;;;6.05;3.22;;;17.60;93.60;;;;;;5113467;28;20102;-68
2022/05/03 07:36:14;;;;;;;5.60;3.58;;;17.70;94.00;;;;;;5113797;28;20027;-68
2022/05/03 07:38:40;;;;;;;4.40;3.22;;;17.90;94.30;;;;;;5095063;28;20115;-72
2022/05/03 07:41:07;;;;;;;4.88;2.97;;;17.70;92.80;;;;;;5092929;28;20054;-70
2022/05/03 07:43:33;;;;;;;8.48;3.08;;;17.90;93.40;;;;;;5093267;28;20020;-69
2022/05/03 07:46:00;;;;;;;3.00;2.58;;;17.90;92.90;;;;;;5093237;28;20024;-71
2022/05/03 07:48:26;;;;;;;5.50;2.78;;;17.80;92.60;;;;;;5093309;28;20050;-69
2022/05/03 07:50:52;;;;;;;4.03;3.08;;;17.80;93.10;;;;;;5092923;28;20473;-68
2022/05/03 07:53:18;;;;;;;2.88;2.58;;;17.80;93.40;;;;;;5093174;28;20031;-69
2022/05/03 07:55:45;;;;;;;3.78;2.20;;;17.90;93.10;;;;;;5093209;28;20039;-69
2022/05/03 07:58:10;;;;;;;3.35;2.33;;;18.20;91.10;;;;;;5093428;28;20109;-69
2022/05/03 08:00:37;;;;;;;5.40;2.70;;;;;;;;;;5093192;28;20075;-67
2022/05/03 08:03:03;;;;;;;4.18;2.92;;;18.60;92.00;;;;;;5091682;28;20077;-70
2022/05/03 08:05:28;;;;;;;6.32;2.63;;;18.50;92.80;;;;;;5092837;28;20539;-70
2022/05/03 08:07:55;;;;;;;6.13;2.50;;;18.70;91.60;;;;;;5093169;28;20172;-68
2022/05/03 08:10:21;;;;;;;5.90;2.78;;;19.20;92.40;;;;;;5093126;28;20376;-66
2022/05/03 08:12:51;;;;;;;4.93;2.83;;;19.10;90.20;;;;;;5096165;28;20111;-67
2022/05/03 08:15:20;;;;;;;5.65;2.60;;;19.10;90.90;;;;;;5097215;28;20036;-70
2022/05/03 08:17:47;;;;;;;11.00;2.72;;;19.30;90.60;;;;;;5097336;28;20525;-71
2022/05/03 08:20:14;;;;;;;5.82;2.50;;;19.30;90.90;;;;;;5097139;28;20032;-71
2022/05/03 08:22:41;;;;;;;6.72;2.75;;;19.60;91.00;;;;;;5097207;28;20089;-71
2022/05/03 08:25:07;;;;;;;5.05;2.45;;;19.60;90.70;;;;;;5096760;28;20468;-70
2022/05/03 08:27:36;;;;;;;7.50;2.80;;;19.40;90.40;;;;;;5098801;28;20053;-69
2022/05/03 08:30:03;;;;;;;5.05;2.40;;;19.70;87.30;;;;;;5099332;28;20042;-66
2022/05/03 08:32:29;;;;;;;7.15;2.72;;;19.70;87.00;;;;;;5117368;28;20034;-66
2022/05/03 08:34:54;;;;;;;4.90;2.83;;;20.20;87.30;;;;;;5117292;28;20024;-66
2022/05/03 08:42:50;;;;;;;6.30;3.83;;;21.00;90.10;;;;;;5117029;28;20111;-66
2022/05/03 08:45:16;;;;;;;7.68;3.17;;;21.30;88.00;;;;;;5116996;27;20102;-66
2022/05/03 08:47:42;;;;;;;5.30;2.70;;;21.40;85.90;;;;;;5116761;28;20024;-69
2022/05/03 08:50:10;;;;;;;5.75;2.58;;;21.10;84.20;;;;;;5115327;28;20031;-70
2022/05/03 08:52:43;;;;;;;4.78;2.90;;;21.20;82.90;;;;;;5115487;28;20436;-69
2022/05/03 08:55:12;;;;;;;14.95;5.40;;;21.00;86.00;;;;;;5116419;28;20032;-68
2022/05/03 08:57:38;;;;;;;23.08;9.52;;;21.10;89.20;;;;;;5115510;28;20032;-68
2022/05/03 09:00:06;;;;;;;42.35;18.95;;;21.20;94.00;;;;;;5116517;28;20523;-65
2022/05/03 09:02:33;;;;;;;4.60;3.38;;;21.40;96.90;;;;;;5115484;28;20027;-68
2022/05/03 09:05:00;;;;;;;34.78;13.23;;;21.10;86.80;;;;;;5116713;28;20084;-68
2022/05/03 09:07:26;;;;;;;33.45;15.00;;;21.40;93.80;;;;;;5116592;28;20024;-67
2022/05/03 09:09:54;;;;;;;36.30;14.68;;;21.70;94.70;;;;;;5116553;28;20540;-68
2022/05/03 09:12:28;;;;;;;39.88;11.75;;;21.70;95.70;;;;;;5116492;27;20134;-68
2022/05/03 09:14:59;;;;;;;24.70;10.02;;;21.60;95.80;;;;;;5116287;28;20476;-67
2022/05/03 09:17:34;;;;;;;;;;;21.70;95.10;;;;;;5116657;28;20028;-66
2022/05/03 09:23:46;;;;;;;19.73;7.95;;;21.70;95.70;;;;;;5116142;28;20321;-67
2022/05/03 09:25:35;;;;;;;10.93;3.65;;;22.10;93.50;;;;;;5115935;28;20142;-68
2022/05/03 09:28:07;;;;;;;8.85;4.07;;;21.80;83.70;;;;;;5116299;28;20527;-67
2022/05/03 09:30:33;;;;;;;9.10;4.30;;;22.10;87.90;;;;;;5116244;28;20059;-67
2022/05/03 09:32:58;;;;;;;7.00;3.83;;;22.20;91.00;;;;;;5116414;28;20055;-68
2022/05/03 09:35:35;;;;;;;11.88;3.15;;;22.40;87.50;;;;;;5115992;28;20085;-70
2022/05/03 09:38:04;;;;;;;21.00;5.00;;;22.50;85.20;;;;;;5115769;28;20391;-66
2022/05/03 09:40:43;;;;;;;10.15;3.67;;;22.60;84.50;;;;;;5115768;28;20111;-66
2022/05/03 09:43:10;;;;;;;8.68;3.35;;;22.70;85.80;;;;;;5115709;28;20458;-67
2022/05/03 09:45:36;;;;;;;10.98;4.80;;;22.60;87.20;;;;;;5116127;28;20019;-66
2022/05/03 09:48:03;;;;;;;11.45;4.70;;;22.90;89.90;;;;;;5115901;28;20023;-66
2022/05/03 09:50:45;;;;;;;10.90;4.82;;;23.10;90.30;;;;;;5115945;28;20036;-69
2022/05/03 09:53:19;;;;;;;18.25;5.40;;;23.20;89.60;;;;;;5114371;28;20035;-69
2022/05/03 09:55:48;;;;;;;12.40;4.18;;;23.50;87.60;;;;;;5114247;28;20024;-67
2022/05/03 09:58:15;;;;;;;9.55;4.00;;;23.50;86.50;;;;;;5115788;28;20019;-67
2022/05/03 10:00:43;;;;;;;5.47;2.53;;;23.60;88.10;;;;;;5115470;27;20031;-67
2022/05/03 10:03:10;;;;;;;10.23;3.00;;;23.40;77.10;;;;;;5115472;28;20349;-67
2022/05/03 10:05:39;;;;;;;9.95;2.92;;;23.50;77.70;;;;;;5115647;28;20032;-67
2022/05/03 10:08:07;;;;;;;4.75;2.33;;;23.50;78.30;;;;;;5113816;28;20019;-69
2022/05/03 10:10:33;;;;;;;4.00;2.28;;;23.60;77.20;;;;;;5115502;28;20072;-66
2022/05/03 10:12:59;;;;;;;7.85;2.08;;;23.60;75.20;;;;;;5115511;28;20473;-67
2022/05/03 10:21:28;;;;;;;3.88;2.30;;;24.00;75.20;;;;;;5113105;28;20114;-67
2022/05/03 10:24:11;;;;;;;4.45;1.98;;;24.30;72.20;;;;;;5113335;28;20024;-67
2022/05/03 10:26:52;;;;;;;15.27;2.63;;;25.60;73.20;;;;;;5114627;28;20106;-66
2022/05/03 10:29:19;;;;;;;8.05;2.88;;;25.70;72.60;;;;;;5114936;27;20028;-67
2022/05/03 10:32:08;;;;;;;6.32;2.53;;;25.90;70.80;;;;;;5114842;28;20063;-67
2022/05/03 10:34:54;;;;;;;6.10;2.30;;;26.00;69.80;;;;;;5114095;28;20027;-67
2022/05/03 10:37:25;;;;;;;7.00;2.30;;;26.10;66.30;;;;;;5114887;28;20360;-69
2022/05/03 10:39:59;;;;;;;6.65;2.65;;;26.50;67.40;;;;;;5114618;28;20059;-69
2022/05/03 10:42:29;;;;;;;8.10;2.65;;;27.00;66.00;;;;;;5114789;28;20468;-68
2022/05/03 10:44:57;;;;;;;8.18;2.40;;;27.50;66.50;;;;;;5114908;28;20476;-69
2022/05/03 10:47:49;;;;;;;5.95;2.60;;;26.50;64.30;;;;;;5114214;28;20043;-68
2022/05/03 10:50:15;;;;;;;5.45;2.13;;;26.30;64.10;;;;;;5114644;28;20035;-68
2022/05/03 10:52:59;;;;;;;10.68;2.70;;;26.20;64.20;;;;;;5114286;27;20437;-67
2022/05/03 10:55:36;;;;;;;8.27;2.28;;;26.30;65.00;;;;;;5114122;28;20488;-68
2022/05/03 10:58:25;;;;;;;6.85;2.22;;;25.70;63.30;;;;;;5114562;28;20032;-66
2022/05/03 11:01:11;;;;;;;4.95;2.40;;;25.00;66.40;;;;;;5114437;28;20035;-66
2022/05/03 11:03:39;;;;;;;3.78;1.85;;;25.20;85.60;;;;;;5114358;28;20056;-66
2022/05/03 11:06:21;;;;;;;3.40;2.17;;;24.90;65.20;;;;;;5112972;28;20034;-69
2022/05/03 11:11:37;;;;;;;4.82;2.10;;;26.40;61.60;;;;;;5114220;28;20035;-67
2022/05/03 11:14:05;;;;;;;5.53;2.53;;;25.60;61.80;;;;;;5112625;28;20038;-68
2022/05/03 11:16:34;;;;;;;7.35;2.30;;;25.10;63.20;;;;;;5114186;28;20028;-67
2022/05/03 11:19:14;;;;;;;2.90;2.00;;;24.70;62.90;;;;;;5114153;28;20373;-67
2022/05/03 11:21:41;;;;;;;2.97;2.13;;;25.80;64.10;;;;;;5114123;28;20027;-68
2022/05/03 11:24:22;;;;;;;3.85;1.92;;;26.10;59.90;;;;;;5114024;28;20092;-66
2022/05/03 11:26:50;;;;;;;4.88;2.60;;;27.30;62.80;;;;;;5111568;28;20047;-69
2022/05/03 11:29:16;;;;;;;2.22;2.00;;;29.40;59.90;;;;;;5113824;28;20031;-70
2022/05/03 11:31:49;;;;;;;3.38;2.22;;;30.30;56.50;;;;;;5113803;28;20094;-69
2022/05/03 11:34:15;;;;;;;5.55;2.28;;;29.90;57.40;;;;;;5095895;28;20353;-69
2022/05/03 11:36:42;;;;;;;3.45;2.38;;;28.70;57.00;;;;;;5095370;28;20126;-69
2022/05/03 11:39:09;;;;;;;6.85;2.60;;;29.50;57.70;;;;;;5113393;28;20371;-67
2022/05/03 11:41:37;;;;;;;4.50;2.35;;;28.60;57.10;;;;;;5113663;28;20028;-68
2022/05/03 11:44:03;;;;;;;5.28;2.78;;;26.20;58.30;;;;;;5113611;28;20062;-72
2022/05/03 11:46:29;;;;;;;4.60;2.58;;;26.10;61.00;;;;;;5095213;28;20372;-71
2022/05/03 11:49:03;;;;;;;3.67;2.70;;;26.00;61.90;;;;;;5113661;28;20031;-70
2022/05/03 11:57:11;;;;;;;6.55;3.00;;;25.80;61.10;;;;;;5113290;28;20088;-69
2022/05/03 11:59:39;;;;;;;10.25;3.17;;;25.60;61.60;;;;;;5113458;28;20110;-68
2022/05/03 12:02:32;;;;;;;5.65;2.97;;;24.80;62.80;;;;;;5113354;28;20464;-68
2022/05/03 12:05:25;;;;;;;7.53;3.22;;;25.50;64.10;;;;;;5109607;28;20035;-69
2022/05/03 12:07:56;;;;;;;6.68;2.88;;;26.70;65.10;;;;;;5113364;28;20360;-71
2022/05/03 12:10:29;;;;;;;5.70;3.50;;;28.00;63.10;;;;;;5113431;28;20036;-67
2022/05/03 12:13:22;;;;;;;5.22;2.53;;;28.80;58.00;;;;;;5113594;28;20031;-70
2022/05/03 12:15:57;;;;;;;8.10;3.03;;;27.80;58.70;;;;;;5113552;28;20106;-68
2022/05/03 12:18:28;;;;;;;11.07;3.65;;;26.90;60.20;;;;;;5113453;28;20057;-69
2022/05/03 12:21:00;;;;;;;2.78;2.55;;;26.10;61.80;;;;;;5113151;28;20032;-69
2022/05/03 12:23:31;;;;;;;11.13;3.88;;;26.60;60.50;;;;;;5113272;28;20028;-71
2022/05/03 12:25:59;;;;;;;6.85;3.17;;;27.80;60.90;;;;;;5113154;28;20067;-68
2022/05/03 12:28:51;;;;;;;5.88;2.90;;;28.70;59.70;;;;;;5094928;28;20425;-69
2022/05/03 12:31:19;;;;;;;7.28;3.35;;;31.40;55.50;;;;;;5109670;28;20043;-71
2022/05/03 12:33:56;;;;;;;3.30;2.28;;;30.80;54.00;;;;;;5094871;28;20092;-70
2022/05/03 12:36:40;;;;;;;7.65;3.17;;;30.70;53.70;;;;;;5113408;28;20149;-70
2022/05/03 12:39:12;;;;;;;6.20;3.40;;;32.30;53.90;;;;;;5113069;28;20031;-69
2022/05/03 12:41:38;;;;;;;7.00;3.40;;;34.90;50.60;;;;;;5094703;28;20080;-68
2022/05/03 12:44:06;;;;;;;5.38;3.50;;;35.70;48.00;;;;;;5113349;28;20188;-69
2022/05/03 12:46:32;;;;;;;8.70;3.15;;;36.70;47.00;;;;;;5113012;28;20491;-68
2022/05/03 12:49:04;;;;;;;6.97;2.20;;;37.10;46.50;;;;;;5113091;28;20024;-68
2022/05/03 12:51:31;;;;;;;3.53;2.60;;;36.20;46.90;;;;;;5112990;28;20033;-70
2022/05/03 12:53:57;;;;;;;6.32;2.95;;;37.20;45.50;;;;;;5113018;28;20027;-71
2022/05/03 12:59:07;;;;;;;5.25;2.70;;;37.50;45.70;;;;;;5116048;28;20031;-69
2022/05/03 13:01:33;;;;;;;14.52;2.28;;;37.60;43.40;;;;;;5098274;28;20027;-69
2022/05/03 13:03:59;;;;;;;5.35;2.50;;;37.70;59.50;;;;;;5116769;28;20535;-70
2022/05/03 13:06:25;;;;;;;3.83;2.25;;;37.30;44.10;;;;;;5116710;28;20098;-70
2022/05/03 13:08:52;;;;;;;8.30;2.47;;;37.20;43.00;;;;;;5098373;28;20080;-70
2022/05/03 13:11:18;;;;;;;10.27;2.63;;;37.20;41.40;;;;;;5116501;28;20031;-68
2022/05/03 13:13:43;;;;;;;8.50;2.10;;;36.10;42.50;;;;;;5116301;28;20446;-68
2022/05/03 13:16:09;;;;;;;4.20;1.83;;;35.00;42.10;;;;;;5116175;28;20032;-70
2022/05/03 13:18:35;;;;;;;5.63;1.95;;;32.60;42.50;;;;;;5097829;28;20107;-68
2022/05/03 13:21:02;;;;;;;3.22;1.77;;;30.70;43.30;;;;;;5116082;28;20032;-70
2022/05/03 13:23:29;;;;;;;3.47;2.10;;;30.00;44.40;;;;;;5116353;28;20047;-68
2022/05/03 13:25:54;;;;;;;2.25;1.80;;;29.40;45.80;;;;;;5115936;28;20097;-68
2022/05/03 13:28:20;;;;;;;3.80;1.70;;;31.40;49.20;;;;;;5097942;28;20023;-70
2022/05/03 13:30:46;;;;;;;5.95;1.90;;;27.70;48.00;;;;;;5115342;28;20028;-68
2022/05/03 13:33:13;;;;;;;4.40;1.75;;;26.70;48.60;;;;;;5104762;28;20046;-68
2022/05/03 13:41:07;;;;;;;5.55;2.85;;;25.70;52.70;;;;;;5103313;28;20046;-66
2022/05/03 13:43:33;;;;;;;4.65;2.10;;;25.70;53.30;;;;;;5103220;28;20032;-67
2022/05/03 13:45:59;;;;;;;4.07;2.60;;;25.50;53.20;;;;;;5085808;28;20016;-66